createdAt,value
2017-08-22T00:00:56.941Z,16.70
2017-08-22T00:03:32.266Z,16.70
2017-08-22T00:06:06.723Z,16.70
2017-08-22T00:08:40.253Z,16.70
2017-08-22T00:11:21.229Z,16.70
2017-08-22T00:13:50.765Z,16.60
2017-08-22T00:16:30.749Z,16.60
2017-08-22T00:19:00.936Z,16.60
2017-08-22T00:24:04.023Z,16.40
2017-08-22T00:26:32.465Z,16.40
2017-08-22T00:29:00.422Z,16.40
2017-08-22T00:31:28.281Z,16.40
2017-08-22T00:33:57.153Z,16.40
2017-08-22T00:36:25.105Z,16.40
2017-08-22T00:38:52.781Z,16.40
2017-08-22T00:41:20.247Z,16.50
2017-08-22T00:43:47.680Z,16.50
2017-08-22T00:46:15.519Z,16.50
2017-08-22T00:48:44.281Z,16.50
2017-08-22T00:51:11.864Z,16.50
2017-08-22T00:53:39.337Z,16.50
2017-08-22T00:56:07.549Z,16.60
2017-08-22T00:58:35.271Z,16.60
2017-08-22T01:01:02.706Z,16.60
2017-08-22T01:03:30.394Z,16.60
2017-08-22T01:05:57.981Z,16.60
2017-08-22T01:08:25.737Z,16.60
2017-08-22T01:10:54.730Z,16.60
2017-08-22T01:13:22.206Z,16.60
2017-08-22T01:15:49.651Z,16.60
2017-08-22T01:18:17.753Z,16.60
2017-08-22T01:20:45.192Z,16.60
2017-08-22T01:23:13.046Z,16.60
2017-08-22T01:25:40.781Z,16.60
2017-08-22T01:28:08.943Z,16.60
2017-08-22T01:30:36.689Z,16.60
2017-08-22T01:33:04.134Z,16.50
2017-08-22T01:35:32.186Z,16.60
2017-08-22T01:37:59.621Z,16.50
2017-08-22T01:40:27.176Z,16.50
2017-08-22T01:42:55.037Z,16.50
2017-08-22T01:45:22.485Z,16.50
2017-08-22T01:47:49.958Z,16.50
2017-08-22T01:50:17.401Z,16.50
2017-08-22T01:52:44.870Z,16.40
2017-08-22T01:55:12.881Z,16.40
2017-08-22T01:57:40.580Z,16.40
2017-08-22T02:00:08.037Z,16.40
2017-08-22T02:02:35.970Z,16.30
2017-08-22T02:05:03.459Z,16.30
2017-08-22T02:07:31.478Z,16.30
2017-08-22T02:09:59.420Z,16.30
2017-08-22T02:12:26.879Z,16.30
2017-08-22T02:14:54.318Z,16.20
2017-08-22T02:17:22.031Z,16.20
2017-08-22T02:19:49.909Z,16.20
2017-08-22T02:22:17.741Z,16.20
2017-08-22T02:24:46.314Z,16.20
2017-08-22T02:27:13.755Z,16.10
2017-08-22T02:29:41.318Z,16.10
2017-08-22T02:32:08.767Z,16.10
2017-08-22T02:34:36.534Z,16.10
2017-08-22T02:37:04.017Z,16.10
2017-08-22T02:39:31.464Z,16.00
2017-08-22T02:41:59.265Z,16.00
2017-08-22T02:44:26.720Z,16.00
2017-08-22T02:46:54.286Z,15.90
2017-08-22T02:49:21.725Z,15.90
2017-08-22T02:51:49.592Z,15.90
2017-08-22T02:54:17.073Z,15.80
2017-08-22T02:56:45.442Z,15.80
2017-08-22T02:59:13.362Z,15.80
2017-08-22T03:01:41.330Z,15.80
2017-08-22T03:04:08.772Z,15.80
2017-08-22T03:06:36.799Z,15.80
2017-08-22T03:09:04.258Z,15.90
2017-08-22T03:11:31.756Z,15.90
2017-08-22T03:13:59.728Z,15.90
2017-08-22T03:16:27.862Z,15.90
2017-08-22T03:18:56.257Z,15.90
2017-08-22T03:21:24.309Z,15.90
2017-08-22T03:23:52.199Z,15.90
2017-08-22T03:26:19.872Z,15.90
2017-08-22T03:28:47.762Z,16.00
2017-08-22T03:31:15.819Z,16.00
2017-08-22T03:33:43.568Z,16.00
2017-08-22T03:36:11.045Z,15.90
2017-08-22T03:38:38.953Z,16.00
2017-08-22T03:41:06.389Z,15.90
2017-08-22T03:43:34.037Z,15.90
2017-08-22T03:46:01.690Z,15.90
2017-08-22T03:48:29.541Z,15.90
2017-08-22T03:50:57.093Z,15.90
2017-08-22T03:53:24.557Z,15.90
2017-08-22T03:55:52.062Z,15.90
2017-08-22T03:58:20.017Z,15.90
2017-08-22T04:00:47.488Z,15.90
2017-08-22T04:03:15.213Z,15.90
2017-08-22T04:05:43.560Z,16.00
2017-08-22T04:08:11.328Z,15.90
2017-08-22T04:10:38.839Z,16.00
2017-08-22T04:13:06.284Z,16.00
2017-08-22T04:15:33.769Z,16.00
2017-08-22T04:18:01.809Z,16.00
2017-08-22T04:20:29.750Z,16.00
2017-08-22T04:22:57.463Z,16.10
2017-08-22T04:25:25.659Z,16.10
2017-08-22T04:27:53.101Z,16.10
2017-08-22T04:30:20.579Z,16.10
2017-08-22T04:32:48.297Z,16.10
2017-08-22T04:35:15.769Z,16.10
2017-08-22T04:37:43.219Z,16.10
2017-08-22T04:40:11.113Z,16.10
2017-08-22T04:42:38.573Z,16.10
2017-08-22T04:45:06.386Z,16.00
2017-08-22T04:47:33.865Z,16.00
2017-08-22T04:50:01.315Z,16.00
2017-08-22T04:52:28.783Z,16.00
2017-08-22T04:54:56.254Z,15.90
2017-08-22T04:57:24.189Z,15.90
2017-08-22T04:59:52.065Z,15.90
2017-08-22T05:02:20.226Z,15.90
2017-08-22T05:04:47.673Z,15.90
2017-08-22T05:07:15.621Z,15.80
2017-08-22T05:09:43.104Z,15.90
2017-08-22T05:12:10.550Z,15.90
2017-08-22T05:14:39.073Z,15.90
2017-08-22T05:17:06.944Z,15.90
2017-08-22T05:19:35.698Z,15.90
2017-08-22T05:22:03.658Z,15.90
2017-08-22T05:24:31.597Z,15.90
2017-08-22T05:26:59.060Z,15.90
2017-08-22T05:29:26.528Z,16.00
2017-08-22T05:31:54.095Z,16.00
2017-08-22T05:34:21.773Z,16.00
2017-08-22T05:36:49.303Z,16.00
2017-08-22T05:39:16.762Z,16.00
2017-08-22T05:41:44.707Z,16.00
2017-08-22T05:44:12.151Z,16.00
2017-08-22T05:46:39.657Z,16.00
2017-08-22T05:49:07.117Z,16.00
2017-08-22T05:51:35.285Z,15.90
2017-08-22T05:54:03.003Z,15.90
2017-08-22T05:56:30.686Z,15.90
2017-08-22T05:58:58.462Z,15.90
2017-08-22T06:01:25.908Z,15.90
2017-08-22T06:03:53.414Z,16.00
2017-08-22T06:06:21.889Z,16.00
2017-08-22T06:08:49.376Z,16.10
2017-08-22T06:11:16.816Z,16.20
2017-08-22T06:13:44.615Z,16.30
2017-08-22T06:16:12.081Z,16.30
2017-08-22T06:18:40.226Z,16.40
2017-08-22T06:21:08.573Z,16.50
2017-08-22T06:23:37.668Z,16.60
2017-08-22T06:26:05.441Z,16.60
2017-08-22T06:28:32.885Z,16.70
2017-08-22T06:31:00.359Z,16.80
2017-08-22T06:33:27.934Z,16.90
2017-08-22T06:35:55.444Z,16.90
2017-08-22T06:38:22.924Z,17.00
2017-08-22T06:40:50.364Z,17.10
2017-08-22T06:43:18.095Z,17.10
2017-08-22T06:45:45.851Z,17.10
2017-08-22T06:48:13.806Z,17.20
2017-08-22T06:50:41.285Z,17.20
2017-08-22T06:53:08.724Z,17.20
2017-08-22T06:55:36.228Z,17.30
2017-08-22T06:58:04.113Z,17.40
2017-08-22T07:00:31.725Z,17.40
2017-08-22T07:02:59.498Z,17.50
2017-08-22T07:05:27.081Z,17.60
2017-08-22T07:07:55.062Z,17.60
2017-08-22T07:10:22.521Z,17.70
2017-08-22T07:12:49.990Z,17.80
2017-08-22T07:15:17.436Z,17.80
2017-08-22T07:17:45.356Z,17.90
2017-08-22T07:20:13.768Z,18.00
2017-08-22T07:22:42.130Z,18.00
2017-08-22T07:25:09.837Z,18.10
2017-08-22T07:27:37.277Z,18.10
2017-08-22T07:30:04.772Z,18.10
2017-08-22T07:32:32.228Z,18.20
2017-08-22T07:35:00.083Z,18.20
2017-08-22T07:37:27.846Z,18.30
2017-08-22T07:39:55.335Z,18.30
2017-08-22T07:42:22.860Z,18.30
2017-08-22T07:44:50.685Z,18.40
2017-08-22T07:47:19.234Z,18.40
2017-08-22T07:49:47.232Z,18.50
2017-08-22T07:52:14.681Z,18.50
2017-08-22T07:54:42.138Z,18.60
2017-08-22T07:57:10.130Z,18.60
2017-08-22T07:59:37.610Z,18.70
2017-08-22T08:02:05.066Z,18.80
2017-08-22T08:04:32.537Z,18.90
2017-08-22T08:07:00.488Z,19.00
2017-08-22T08:09:27.969Z,19.10
2017-08-22T08:11:55.454Z,19.10
2017-08-22T08:14:22.909Z,19.20
2017-08-22T08:16:50.386Z,19.30
2017-08-22T08:19:18.416Z,19.30
2017-08-22T08:21:47.649Z,19.40
2017-08-22T08:24:16.168Z,19.50
2017-08-22T08:26:43.617Z,19.60
2017-08-22T08:29:11.074Z,19.70
2017-08-22T08:31:38.557Z,19.70
2017-08-22T08:34:06.449Z,19.80
2017-08-22T08:36:34.522Z,19.80
2017-08-22T08:39:01.999Z,19.90
2017-08-22T08:41:29.443Z,19.90
2017-08-22T08:43:56.905Z,20.00
2017-08-22T08:46:24.422Z,20.10
2017-08-22T08:48:51.973Z,20.20
2017-08-22T08:51:19.865Z,20.30
2017-08-22T08:53:47.340Z,20.30
2017-08-22T08:56:14.861Z,20.40
2017-08-22T08:58:42.901Z,20.40
2017-08-22T09:01:10.373Z,20.50
2017-08-22T09:03:37.861Z,20.50
2017-08-22T09:06:05.361Z,20.60
2017-08-22T09:08:33.281Z,20.60
2017-08-22T09:11:00.758Z,20.70
2017-08-22T09:13:28.263Z,20.70
2017-08-22T09:15:55.793Z,20.80
2017-08-22T09:18:23.759Z,20.90
2017-08-22T09:20:52.337Z,21.00
2017-08-22T09:23:20.288Z,21.00
2017-08-22T09:25:48.120Z,21.10
2017-08-22T09:28:15.914Z,21.20
2017-08-22T09:30:43.830Z,21.20
2017-08-22T09:33:11.276Z,21.30
2017-08-22T09:35:38.772Z,21.40
2017-08-22T09:38:06.685Z,21.40
2017-08-22T09:40:34.408Z,21.50
2017-08-22T09:43:01.962Z,21.50
2017-08-22T09:45:29.426Z,21.60
2017-08-22T09:47:56.886Z,21.70
2017-08-22T09:50:24.880Z,21.80
2017-08-22T09:52:52.321Z,21.80
2017-08-22T09:55:19.781Z,21.80
2017-08-22T09:57:47.596Z,21.80
2017-08-22T10:00:15.056Z,21.80
2017-08-22T10:02:42.529Z,21.90
2017-08-22T10:05:10.370Z,21.90
2017-08-22T10:07:38.232Z,22.00
2017-08-22T10:10:05.848Z,21.90
2017-08-22T10:12:33.305Z,22.00
2017-08-22T10:15:01.656Z,22.10
2017-08-22T10:17:59.707Z,22.10
2017-08-22T10:20:27.192Z,22.30
2017-08-22T10:22:55.121Z,22.40
2017-08-22T10:25:23.185Z,22.50
2017-08-22T10:27:50.627Z,22.60
2017-08-22T10:30:18.342Z,22.70
2017-08-22T10:32:45.802Z,22.80
2017-08-22T10:35:14.026Z,23.00
2017-08-22T10:37:41.497Z,23.00
2017-08-22T10:40:09.710Z,23.30
2017-08-22T10:42:37.189Z,23.30
2017-08-22T10:45:05.406Z,23.50
2017-08-22T10:47:33.094Z,23.50
2017-08-22T10:50:00.551Z,23.60
2017-08-22T10:52:28.570Z,23.70
2017-08-22T10:54:56.349Z,23.70
2017-08-22T10:57:25.072Z,23.90
2017-08-22T10:59:52.545Z,23.80
2017-08-22T11:02:20.492Z,23.90
2017-08-22T11:04:48.000Z,23.90
2017-08-22T11:07:15.749Z,23.90
2017-08-22T11:09:43.235Z,23.80
2017-08-22T11:12:10.692Z,23.80
2017-08-22T11:14:38.130Z,23.80
2017-08-22T11:17:06.876Z,23.70
2017-08-22T11:19:34.824Z,23.70
2017-08-22T11:22:03.698Z,23.60
2017-08-22T11:24:31.860Z,23.50
2017-08-22T11:26:59.318Z,23.40
2017-08-22T11:29:26.792Z,23.30
2017-08-22T11:31:54.388Z,23.20
2017-08-22T11:34:21.859Z,23.30
2017-08-22T11:36:49.296Z,23.40
2017-08-22T11:39:16.766Z,23.50
2017-08-22T11:41:44.233Z,23.70
2017-08-22T11:44:11.784Z,23.90
2017-08-22T11:46:39.240Z,24.10
2017-08-22T11:49:07.618Z,24.50
2017-08-22T11:51:35.338Z,24.50
2017-08-22T11:54:03.027Z,24.70
2017-08-22T11:56:30.505Z,24.90
2017-08-22T11:58:58.492Z,25.00
2017-08-22T12:01:25.953Z,25.20
2017-08-22T12:03:53.438Z,25.30
2017-08-22T12:06:22.655Z,25.50
2017-08-22T12:08:50.981Z,25.60
2017-08-22T12:11:18.425Z,25.80
2017-08-22T12:13:46.849Z,26.00
2017-08-22T12:16:14.842Z,26.20
2017-08-22T12:18:42.757Z,26.40
2017-08-22T12:21:10.540Z,26.40
2017-08-22T12:23:39.657Z,26.50
2017-08-22T12:26:07.151Z,26.60
2017-08-22T12:28:34.699Z,26.70
2017-08-22T12:31:02.189Z,26.80
2017-08-22T12:33:29.686Z,26.90
2017-08-22T12:35:57.157Z,26.80
2017-08-22T12:38:25.969Z,26.70
2017-08-22T12:40:54.175Z,26.50
2017-08-22T12:43:21.647Z,26.40
2017-08-22T12:45:49.180Z,26.30
2017-08-22T12:48:17.091Z,26.40
2017-08-22T12:50:44.975Z,26.40
2017-08-22T12:53:12.954Z,26.50
2017-08-22T12:55:41.113Z,26.50
2017-08-22T12:58:09.773Z,26.90
2017-08-22T13:00:37.210Z,26.80
2017-08-22T13:03:04.934Z,27.00
2017-08-22T13:05:32.466Z,27.20
2017-08-22T13:08:00.681Z,27.40
2017-08-22T13:10:28.568Z,27.50
2017-08-22T13:12:56.016Z,27.60
2017-08-22T13:15:23.489Z,27.70
2017-08-22T13:17:51.857Z,27.90
2017-08-22T13:20:19.362Z,28.00
2017-08-22T13:22:47.446Z,28.10
2017-08-22T13:25:15.289Z,28.20
2017-08-22T13:27:42.764Z,28.10
2017-08-22T13:30:10.259Z,27.90
2017-08-22T13:32:37.887Z,27.70
2017-08-22T13:35:05.799Z,27.50
2017-08-22T13:37:33.291Z,27.40
2017-08-22T13:40:02.194Z,27.10
2017-08-22T13:42:29.665Z,26.90
2017-08-22T13:44:57.113Z,26.70
2017-08-22T13:47:24.989Z,26.60
2017-08-22T13:49:52.459Z,26.60
2017-08-22T13:52:19.957Z,26.60
2017-08-22T13:54:47.416Z,26.80
2017-08-22T13:57:16.340Z,27.00
2017-08-22T13:59:44.682Z,27.00
2017-08-22T14:02:12.171Z,27.00
2017-08-22T14:04:40.453Z,27.00
2017-08-22T14:07:08.344Z,26.90
2017-08-22T14:09:36.530Z,26.80
2017-08-22T14:12:03.976Z,26.60
2017-08-22T14:14:31.443Z,26.40
2017-08-22T14:16:59.466Z,26.30
2017-08-22T14:19:27.313Z,26.20
2017-08-22T14:21:55.234Z,26.10
2017-08-22T14:24:24.029Z,26.00
2017-08-22T14:26:51.485Z,25.90
2017-08-22T14:29:19.414Z,25.80
2017-08-22T14:31:46.879Z,25.70
2017-08-22T14:34:14.369Z,25.80
2017-08-22T14:36:42.064Z,26.00
2017-08-22T14:39:09.537Z,26.20
2017-08-22T14:41:37.045Z,26.30
2017-08-22T14:44:04.646Z,26.30
2017-08-22T14:46:33.018Z,26.30
2017-08-22T14:49:00.480Z,26.30
2017-08-22T14:51:27.930Z,26.40
2017-08-22T14:53:55.397Z,26.40
2017-08-22T14:56:22.839Z,26.50
2017-08-22T14:58:50.660Z,26.60
2017-08-22T15:01:18.122Z,26.80
2017-08-22T15:03:45.590Z,26.80
2017-08-22T15:06:13.046Z,26.90
2017-08-22T15:08:41.271Z,26.80
2017-08-22T15:11:08.724Z,26.70
2017-08-22T15:13:36.172Z,26.70
2017-08-22T15:16:04.518Z,26.70
2017-08-22T15:18:33.240Z,26.80
2017-08-22T15:21:01.146Z,26.90
2017-08-22T15:23:28.921Z,26.90
2017-08-22T15:25:56.782Z,27.00
2017-08-22T15:28:24.271Z,27.00
2017-08-22T15:30:52.553Z,26.90
2017-08-22T15:33:19.988Z,26.90
2017-08-22T15:35:47.457Z,26.80
2017-08-22T15:38:15.634Z,26.60
2017-08-22T15:40:44.693Z,26.30
2017-08-22T15:43:12.168Z,26.30
2017-08-22T15:45:40.518Z,26.10
2017-08-22T15:48:08.732Z,25.80
2017-08-22T15:50:36.241Z,25.80
2017-08-22T15:53:04.490Z,25.60
2017-08-22T15:55:32.242Z,25.60
2017-08-22T15:58:01.116Z,25.60
2017-08-22T16:00:29.505Z,25.60
2017-08-22T16:02:57.024Z,25.60
2017-08-22T16:05:25.932Z,25.70
2017-08-22T16:07:54.118Z,25.80
2017-08-22T16:10:21.614Z,25.80
2017-08-22T16:12:49.067Z,25.80
2017-08-22T16:15:16.638Z,25.80
2017-08-22T16:17:45.015Z,25.70
2017-08-22T16:20:12.501Z,25.60
2017-08-22T16:22:40.402Z,25.60
2017-08-22T16:25:08.370Z,25.50
2017-08-22T16:27:35.841Z,25.40
2017-08-22T16:30:03.899Z,25.30
2017-08-22T16:32:31.371Z,25.20
2017-08-22T16:34:58.958Z,25.10
2017-08-22T16:37:26.436Z,25.00
2017-08-22T16:39:53.985Z,25.00
2017-08-22T16:42:21.469Z,24.90
2017-08-22T16:44:49.175Z,24.80
2017-08-22T16:47:17.437Z,24.70
2017-08-22T16:49:44.865Z,24.70
2017-08-22T16:52:12.527Z,24.60
2017-08-22T16:54:40.465Z,24.60
2017-08-22T16:57:08.349Z,24.60
2017-08-22T16:59:36.482Z,24.60
2017-08-22T17:02:03.938Z,24.60
2017-08-22T17:04:31.863Z,24.60
2017-08-22T17:06:59.718Z,24.60
2017-08-22T17:09:27.189Z,24.60
2017-08-22T17:11:54.676Z,24.60
2017-08-22T17:14:22.136Z,24.60
2017-08-22T17:16:50.161Z,24.60
2017-08-22T17:19:18.720Z,24.60
2017-08-22T17:21:47.471Z,24.60
2017-08-22T17:24:15.796Z,24.60
2017-08-22T17:26:43.352Z,24.50
2017-08-22T17:29:10.899Z,24.40
2017-08-22T17:31:38.949Z,24.40
2017-08-22T17:34:06.409Z,24.30
2017-08-22T17:36:34.077Z,24.20
2017-08-22T17:39:01.789Z,24.20
2017-08-22T17:41:29.249Z,24.10
2017-08-22T17:43:56.716Z,24.10
2017-08-22T17:46:24.203Z,24.00
2017-08-22T17:48:51.758Z,24.00
2017-08-22T17:51:19.260Z,23.90
2017-08-22T17:53:47.898Z,23.90
2017-08-22T17:56:15.379Z,23.90
2017-08-22T17:58:43.188Z,23.80
2017-08-22T18:01:11.924Z,23.80
2017-08-22T18:03:39.548Z,23.70
2017-08-22T18:06:07.155Z,23.60
2017-08-22T18:08:34.945Z,23.40
2017-08-22T18:11:02.609Z,23.40
2017-08-22T18:13:30.083Z,23.30
2017-08-22T18:15:57.522Z,23.20
2017-08-22T18:18:25.651Z,23.10
2017-08-22T18:20:53.200Z,23.00
2017-08-22T18:23:20.947Z,22.90
2017-08-22T18:25:49.788Z,22.80
2017-08-22T18:28:17.627Z,22.80
2017-08-22T18:30:45.145Z,22.80
2017-08-22T18:33:12.713Z,22.70
2017-08-22T18:35:40.960Z,22.60
2017-08-22T18:38:08.538Z,22.60
2017-08-22T18:40:35.979Z,22.60
2017-08-22T18:43:04.491Z,22.50
2017-08-22T18:45:32.371Z,22.50
2017-08-22T18:47:59.856Z,22.40
2017-08-22T18:50:28.829Z,22.40
2017-08-22T18:52:56.469Z,22.30
2017-08-22T18:55:24.468Z,22.30
2017-08-22T18:57:52.640Z,22.30
2017-08-22T19:00:21.092Z,22.10
2017-08-22T19:02:49.042Z,22.10
2017-08-22T19:05:16.538Z,22.10
2017-08-22T19:07:45.014Z,22.00
2017-08-22T19:10:12.496Z,21.90
2017-08-22T19:12:39.970Z,21.80
2017-08-22T19:15:09.072Z,21.80
2017-08-22T19:17:37.888Z,21.70
2017-08-22T19:20:06.147Z,21.60
2017-08-22T19:22:34.206Z,21.50
2017-08-22T19:25:02.142Z,21.40
2017-08-22T19:27:29.623Z,21.40
2017-08-22T19:29:57.757Z,21.30
2017-08-22T19:32:25.230Z,21.40
2017-08-22T19:34:53.046Z,21.30
2017-08-22T19:37:20.521Z,21.40
2017-08-22T19:39:47.961Z,21.40
2017-08-22T19:42:15.563Z,21.40
2017-08-22T19:44:43.638Z,21.30
2017-08-22T19:47:11.105Z,21.30
2017-08-22T19:49:38.556Z,21.30
2017-08-22T19:52:06.552Z,21.30
2017-08-22T19:54:34.003Z,21.30
2017-08-22T19:57:02.065Z,21.40
2017-08-22T19:59:29.510Z,21.40
2017-08-22T20:01:58.160Z,21.40
2017-08-22T20:04:25.646Z,21.50
2017-08-22T20:06:53.541Z,21.50
2017-08-22T20:09:21.400Z,21.40
2017-08-22T20:11:48.857Z,21.40
2017-08-22T20:14:16.306Z,21.30
2017-08-22T20:16:44.611Z,21.20
2017-08-22T20:19:12.705Z,21.20
2017-08-22T20:21:40.761Z,21.10
2017-08-22T20:24:08.815Z,21.10
2017-08-22T20:26:36.295Z,20.90
2017-08-22T20:29:03.736Z,20.80
2017-08-22T20:31:31.950Z,20.80
2017-08-22T20:34:00.301Z,20.70
2017-08-22T20:36:29.148Z,20.70
2017-08-22T20:38:56.597Z,20.60
2017-08-22T20:41:24.139Z,20.60
2017-08-22T20:43:52.148Z,20.50
2017-08-22T20:46:19.626Z,20.40
2017-08-22T20:48:47.108Z,20.30
2017-08-22T20:51:14.562Z,20.20
2017-08-22T20:53:42.021Z,20.10
2017-08-22T20:56:09.581Z,20.10
2017-08-22T20:58:37.318Z,20.00
2017-08-22T21:01:04.769Z,19.90
2017-08-22T21:03:32.677Z,19.90
2017-08-22T21:06:00.109Z,19.80
2017-08-22T21:08:28.069Z,19.80
2017-08-22T21:10:55.523Z,19.70
2017-08-22T21:13:23.249Z,19.70
2017-08-22T21:15:50.696Z,19.70
2017-08-22T21:18:18.753Z,19.60
2017-08-22T21:20:46.706Z,19.60
2017-08-22T21:23:14.761Z,19.60
2017-08-22T21:25:42.574Z,19.60
2017-08-22T21:28:10.021Z,19.50
2017-08-22T21:30:37.695Z,19.40
2017-08-22T21:33:05.472Z,19.40
2017-08-22T21:35:32.947Z,19.30
2017-08-22T21:38:00.449Z,19.30
2017-08-22T21:40:28.284Z,19.30
2017-08-22T21:42:55.710Z,19.20
2017-08-22T21:45:23.166Z,19.20
2017-08-22T21:47:51.428Z,19.10
2017-08-22T21:50:18.887Z,19.10
2017-08-22T21:52:46.405Z,19.10
2017-08-22T21:55:14.727Z,19.00
2017-08-22T21:57:42.732Z,19.00
2017-08-22T22:00:10.169Z,19.00
2017-08-22T22:02:38.883Z,19.00
2017-08-22T22:05:06.813Z,19.00
2017-08-22T22:07:35.181Z,18.90
2017-08-22T22:10:03.556Z,18.90
2017-08-22T22:12:31.281Z,18.90
2017-08-22T22:14:59.478Z,18.80
2017-08-22T22:17:27.409Z,18.80
2017-08-22T22:19:55.309Z,18.80
2017-08-22T22:22:23.084Z,18.70
2017-08-22T22:24:51.829Z,18.60
2017-08-22T22:27:19.277Z,18.60
2017-08-22T22:29:47.069Z,18.60
2017-08-22T22:32:14.506Z,18.60
2017-08-22T22:34:42.204Z,18.60
2017-08-22T22:37:09.645Z,18.50
2017-08-22T22:39:37.127Z,18.60
2017-08-22T22:42:04.602Z,18.50
2017-08-22T22:44:32.057Z,18.60
2017-08-22T22:47:00.197Z,18.50
2017-08-22T22:49:27.642Z,18.60
2017-08-22T22:51:55.185Z,18.50
2017-08-22T22:54:23.160Z,18.60
2017-08-22T22:56:51.644Z,18.60
2017-08-22T22:59:19.079Z,18.50
2017-08-22T23:01:46.634Z,18.50
2017-08-22T23:04:14.633Z,18.50
2017-08-22T23:06:42.961Z,18.40
2017-08-22T23:09:10.420Z,18.30
2017-08-22T23:11:38.063Z,18.30
2017-08-22T23:14:05.520Z,18.30
2017-08-22T23:16:33.505Z,18.20
2017-08-22T23:19:01.561Z,18.10
2017-08-22T23:21:30.281Z,18.10
2017-08-22T23:23:58.184Z,18.10
2017-08-22T23:26:25.629Z,18.00
2017-08-22T23:28:53.113Z,18.00
2017-08-22T23:31:20.554Z,18.00
2017-08-22T23:33:48.013Z,18.00
2017-08-22T23:36:16.106Z,17.90
2017-08-22T23:38:43.596Z,18.00
2017-08-22T23:41:11.045Z,18.00
2017-08-22T23:43:38.500Z,18.00
2017-08-22T23:46:05.981Z,18.00
2017-08-22T23:48:34.646Z,18.00
2017-08-22T23:51:02.306Z,18.00
2017-08-22T23:53:29.766Z,18.00
2017-08-22T23:55:57.256Z,18.00
2017-08-22T23:58:25.286Z,18.00
